| time (UTC) | temp F | wind direction | speed MPH | gust MPH | rain 1hr in | rain 24hr in | rain mn in | humidity % | barometer mb |
| 20260502151837 | 43 | 232 | 1.0 | 1.0 | 0.00 | 0.00 | 0.00 | 44 | 1023.7 |
| 20260502151333 | 42 | 93 | 0.0 | 0.0 | 0.00 | 0.00 | 0.00 | 46 | 1023.9 |
| 20260502150831 | 41 | 87 | 0.0 | 0.0 | 0.00 | 0.00 | 0.00 | 48 | 1023.8 |
| 20260502150328 | 42 | 110 | 0.0 | 0.0 | 0.00 | 0.00 | 0.00 | 48 | 1024.0 |
| 20260502130716 | 25 | 102 | 0.0 | 0.0 | 0.00 | 0.00 | 0.00 | 78 | 1023.8 |
| 20260502130214 | 25 | 104 | 0.0 | 0.0 | 0.00 | 0.00 | 0.00 | 77 | 1023.7 |
| 20260502123700 | 25 | 98 | 0.0 | 0.0 | 0.00 | 0.00 | 0.00 | 79 | 1023.5 |
| 20260502123156 | 25 | 97 | 0.0 | 0.0 | 0.00 | 0.00 | 0.00 | 79 | 1023.7 |
| 20260502122652 | 25 | 98 | 0.0 | 0.0 | 0.00 | 0.00 | 0.00 | 78 | 1023.7 |
| 20260502122149 | 25 | 93 | 0.0 | 0.0 | 0.00 | 0.00 | 0.00 | 80 | 1023.7 |
| 20260502121647 | 25 | 96 | 0.0 | 0.0 | 0.00 | 0.00 | 0.00 | 80 | 1023.8 |
| 20260502121145 | 25 | 100 | 0.0 | 0.0 | 0.00 | 0.00 | 0.00 | 80 | 1023.5 |
| 20260502120641 | 25 | 101 | 0.0 | 0.0 | 0.00 | 0.00 | 0.00 | 79 | 1023.5 |
| 20260502120138 | 25 | 101 | 0.0 | 0.0 | 0.00 | 0.00 | 0.00 | 79 | 1023.4 |
| 20260502115635 | 25 | 101 | 0.0 | 0.0 | 0.00 | 0.00 | 0.00 | 78 | 1023.7 |
| 20260502115131 | 25 | 101 | 0.0 | 0.0 | 0.00 | 0.00 | 0.00 | 77 | 1023.7 |
| 20260502114627 | 25 | 101 | 0.0 | 0.0 | 0.00 | 0.00 | 0.00 | 76 | 1023.8 |
| 20260502114125 | 25 | 102 | 0.0 | 0.0 | 0.00 | 0.00 | 0.00 | 76 | 1023.8 |
| 20260502113622 | 26 | 103 | 0.0 | 0.0 | 0.00 | 0.00 | 0.00 | 75 | 1023.7 |
| 20260502113121 | 26 | 115 | 0.0 | 0.0 | 0.00 | 0.00 | 0.00 | 74 | 1023.7 |
| 20260502112618 | 26 | 120 | 0.0 | 0.0 | 0.00 | 0.00 | 0.00 | 73 | 1023.8 |
| 20260502112115 | 27 | 117 | 0.0 | 0.0 | 0.00 | 0.00 | 0.00 | 73 | 1023.5 |
| 20260502111613 | 27 | 111 | 0.0 | 0.0 | 0.00 | 0.00 | 0.00 | 73 | 1023.5 |
| 20260502111110 | 27 | 119 | 0.0 | 0.0 | 0.00 | 0.00 | 0.00 | 74 | 1023.7 |
| 20260502110608 | 27 | 102 | 0.0 | 0.0 | 0.00 | 0.00 | 0.00 | 72 | 1023.8 |
| 20260502110105 | 28 | 108 | 0.0 | 0.0 | 0.00 | 0.00 | 0.00 | 71 | 1023.7 |
| 20260502105602 | 28 | 152 | 0.0 | 1.0 | 0.00 | 0.00 | 0.00 | 72 | 1023.8 |
| 20260502105059 | 28 | 83 | 0.0 | 0.0 | 0.00 | 0.00 | 0.00 | 71 | 1023.7 |
| 20260502104556 | 28 | 104 | 0.0 | 0.0 | 0.00 | 0.00 | 0.00 | 72 | 1023.7 |
| 20260502104054 | 28 | 110 | 0.0 | 0.0 | 0.00 | 0.00 | 0.00 | 73 | 1023.5 |
| 20260502103551 | 27 | 106 | 0.0 | 0.0 | 0.00 | 0.00 | 0.00 | 73 | 1023.5 |
| 20260502103049 | 28 | 100 | 0.0 | 0.0 | 0.00 | 0.00 | 0.00 | 73 | 1023.5 |
| 20260502102545 | 28 | 100 | 0.0 | 0.0 | 0.00 | 0.00 | 0.00 | 71 | 1023.7 |
| 20260502102043 | 29 | 104 | 0.0 | 0.0 | 0.00 | 0.00 | 0.00 | 71 | 1023.9 |
| 20260502101541 | 29 | 87 | 0.0 | 0.0 | 0.00 | 0.00 | 0.00 | 69 | 1023.7 |
| 20260502101039 | 30 | 85 | 1.0 | 1.0 | 0.00 | 0.00 | 0.00 | 66 | 1023.4 |
| 20260502100537 | 29 | 94 | 0.0 | 0.0 | 0.00 | 0.00 | 0.00 | 67 | 1023.4 |
| 20260502091512 | 31 | 85 | 0.0 | 0.0 | 0.00 | 0.00 | 0.00 | 63 | 1023.3 |
| 20260502091009 | 32 | 83 | 0.0 | 0.0 | 0.00 | 0.00 | 0.00 | 62 | 1022.9 |
| 20260502090505 | 32 | 75 | 0.0 | 0.0 | 0.00 | 0.00 | 0.00 | 62 | 1023.2 |
| 20260502071400 | 36 | 94 | 0.0 | 0.0 | 0.00 | 0.00 | 0.00 | 52 | 1022.7 |
| 20260502070858 | 36 | 103 | 0.0 | 1.0 | 0.00 | 0.00 | 0.00 | 51 | 1022.8 |
| 20260502070356 | 36 | 103 | 0.0 | 0.0 | 0.00 | 0.00 | 0.00 | 51 | 1022.7 |
| 20260502065855 | 37 | 84 | 0.0 | 1.0 | 0.00 | 0.00 | 0.00 | 51 | 1022.7 |
| 20260502065352 | 37 | 90 | 0.0 | 0.0 | 0.00 | 0.00 | 0.00 | 50 | 1022.7 |
| 20260502064850 | 37 | 97 | 0.0 | 0.0 | 0.00 | 0.00 | 0.00 | 49 | 1022.6 |
| 20260502064348 | 38 | 103 | 0.0 | 0.0 | 0.00 | 0.00 | 0.00 | 49 | 1022.5 |
| 20260502063844 | 38 | 88 | 0.0 | 0.0 | 0.00 | 0.00 | 0.00 | 48 | 1022.3 |
| 20260502063342 | 39 | 95 | 0.0 | 0.0 | 0.00 | 0.00 | 0.00 | 47 | 1022.5 |
| 20260502062839 | 39 | 91 | 0.0 | 0.0 | 0.00 | 0.00 | 0.00 | 47 | 1022.5 |
| 20260502062337 | 39 | 91 | 1.0 | 2.0 | 0.00 | 0.00 | 0.00 | 46 | 1022.6 |
| 20260502061836 | 39 | 101 | 2.0 | 2.0 | 0.00 | 0.00 | 0.00 | 45 | 1022.3 |
| 20260502061333 | 39 | 103 | 2.0 | 3.0 | 0.00 | 0.00 | 0.00 | 45 | 1022.5 |
| 20260502060829 | 39 | 68 | 1.0 | 2.0 | 0.00 | 0.00 | 0.00 | 46 | 1022.3 |
| 20260502060324 | 40 | 101 | 1.0 | 1.0 | 0.00 | 0.00 | 0.00 | 45 | 1022.2 |
| 20260502055822 | 40 | 80 | 0.0 | 0.0 | 0.00 | 0.00 | 0.00 | 44 | 1022.2 |
| 20260502055320 | 40 | 101 | 1.0 | 1.0 | 0.00 | 0.00 | 0.00 | 43 | 1022.2 |
| 20260502054819 | 40 | 95 | 0.0 | 1.0 | 0.00 | 0.00 | 0.00 | 43 | 1022.2 |
| 20260502054316 | 41 | 86 | 0.0 | 0.0 | 0.00 | 0.00 | 0.00 | 43 | 1022.3 |
| 20260502053813 | 41 | 89 | 0.0 | 0.0 | 0.00 | 0.00 | 0.00 | 43 | 1022.1 |
| 20260502053310 | 41 | 89 | 1.0 | 2.0 | 0.00 | 0.00 | 0.00 | 42 | 1022.2 |
| 20260502052808 | 41 | 97 | 1.0 | 2.0 | 0.00 | 0.00 | 0.00 | 41 | 1022.1 |
| 20260502052306 | 41 | 99 | 1.0 | 1.0 | 0.00 | 0.00 | 0.00 | 42 | 1022.0 |
| 20260502051804 | 42 | 83 | 0.0 | 0.0 | 0.00 | 0.00 | 0.00 | 42 | 1022.0 |
| 20260502051302 | 42 | 96 | 3.0 | 3.0 | 0.00 | 0.00 | 0.00 | 40 | 1022.0 |
| 20260502050758 | 42 | 104 | 0.0 | 0.0 | 0.00 | 0.00 | 0.00 | 39 | 1021.8 |
| 20260502050254 | 42 | 93 | 0.0 | 0.0 | 0.00 | 0.00 | 0.00 | 39 | 1022.0 |
| 20260502045752 | 42 | 111 | 0.0 | 1.0 | 0.00 | 0.00 | 0.00 | 39 | 1021.8 |
| 20260502045248 | 43 | 95 | 0.0 | 0.0 | 0.00 | 0.00 | 0.00 | 39 | 1022.0 |
| 20260502044745 | 43 | 106 | 0.0 | 1.0 | 0.00 | 0.00 | 0.00 | 38 | 1021.8 |
| 20260502044241 | 43 | 96 | 1.0 | 1.0 | 0.00 | 0.00 | 0.00 | 37 | 1021.8 |
| 20260502043739 | 43 | 111 | 0.0 | 0.0 | 0.00 | 0.00 | 0.00 | 38 | 1021.8 |
| 20260502043236 | 44 | 98 | 1.0 | 3.0 | 0.00 | 0.00 | 0.00 | 37 | 1021.8 |
| 20260502042735 | 44 | 67 | 1.0 | 2.0 | 0.00 | 0.00 | 0.00 | 37 | 1021.7 |
| 20260502042233 | 44 | 93 | 2.0 | 3.0 | 0.00 | 0.00 | 0.00 | 37 | 1021.5 |
| 20260502041731 | 43 | 95 | 0.0 | 1.0 | 0.00 | 0.00 | 0.00 | 38 | 1021.6 |
| 20260502041228 | 43 | 129 | 2.0 | 3.0 | 0.00 | 0.00 | 0.00 | 38 | 1021.6 |
| 20260502040725 | 43 | 90 | 4.0 | 6.0 | 0.00 | 0.00 | 0.00 | 38 | 1021.7 |
| 20260502040221 | 44 | 92 | 3.0 | 4.0 | 0.00 | 0.00 | 0.00 | 38 | 1021.5 |
| 20260502035717 | 44 | 115 | 1.0 | 2.0 | 0.00 | 0.00 | 0.00 | 37 | 1021.5 |
| 20260502035215 | 45 | 90 | 0.0 | 1.0 | 0.00 | 0.00 | 0.00 | 36 | 1021.7 |
| 20260502034712 | 45 | 85 | 1.0 | 2.0 | 0.00 | 0.00 | 0.00 | 36 | 1021.5 |
| 20260502034210 | 45 | 69 | 4.0 | 6.0 | 0.00 | 0.00 | 0.00 | 36 | 1021.5 |
| 20260502033708 | 45 | 66 | 1.0 | 2.0 | 0.00 | 0.00 | 0.00 | 35 | 1021.5 |
| 20260502033206 | 45 | 112 | 3.0 | 3.0 | 0.00 | 0.00 | 0.00 | 35 | 1021.2 |
| 20260502032702 | 46 | 113 | 4.0 | 4.0 | 0.00 | 0.00 | 0.00 | 35 | 1021.2 |
| 20260502032157 | 47 | 114 | 2.0 | 3.0 | 0.00 | 0.00 | 0.00 | 33 | 1021.0 |
| 20260502031656 | 47 | 94 | 2.0 | 2.0 | 0.00 | 0.00 | 0.00 | 32 | 1021.1 |
| 20260502031153 | 48 | 117 | 1.0 | 1.0 | 0.00 | 0.00 | 0.00 | 31 | 1020.9 |
| 20260502030652 | 48 | 103 | 0.0 | 0.0 | 0.00 | 0.00 | 0.00 | 31 | 1020.9 |
| 20260502030150 | 48 | 102 | 3.0 | 3.0 | 0.00 | 0.00 | 0.00 | 30 | 1021.0 |
| 20260502025646 | 48 | 37 | 1.0 | 1.0 | 0.00 | 0.00 | 0.00 | 30 | 1020.6 |
| 20260502025144 | 49 | 103 | 0.0 | 1.0 | 0.00 | 0.00 | 0.00 | 30 | 1020.4 |
| 20260502024642 | 49 | 89 | 3.0 | 3.0 | 0.00 | 0.00 | 0.00 | 30 | 1020.5 |
| 20260502024140 | 49 | 98 | 1.0 | 2.0 | 0.00 | 0.00 | 0.00 | 30 | 1020.5 |
| 20260502023638 | 49 | 115 | 2.0 | 3.0 | 0.00 | 0.00 | 0.00 | 30 | 1020.5 |
| 20260502023135 | 50 | 78 | 3.0 | 3.0 | 0.00 | 0.00 | 0.00 | 30 | 1020.5 |
| 20260502022632 | 51 | 99 | 0.0 | 1.0 | 0.00 | 0.00 | 0.00 | 29 | 1020.3 |
| 20260502022129 | 52 | 87 | 1.0 | 1.0 | 0.00 | 0.00 | 0.00 | 27 | 1020.3 |
| 20260502021626 | 53 | 75 | 0.0 | 1.0 | 0.00 | 0.00 | 0.00 | 27 | 1020.5 |
| 20260502021123 | 54 | 101 | 1.0 | 1.0 | 0.00 | 0.00 | 0.00 | 25 | 1020.2 |
| 20260502020621 | 56 | 101 | 0.0 | 0.0 | 0.00 | 0.00 | 0.00 | 24 | 1020.3 |
| 20260502020117 | 58 | 92 | 0.0 | 0.0 | 0.00 | 0.00 | 0.00 | 22 | 1020.3 |
| 20260502015615 | 58 | 129 | 0.0 | 0.0 | 0.00 | 0.00 | 0.00 | 17 | 1020.2 |
| 20260502015111 | 59 | 137 | 0.0 | 1.0 | 0.00 | 0.00 | 0.00 | 17 | 1020.4 |
| 20260502014608 | 61 | 144 | 0.0 | 1.0 | 0.00 | 0.00 | 0.00 | 16 | 1020.0 |
| 20260502014106 | 62 | 187 | 1.0 | 1.0 | 0.00 | 0.00 | 0.00 | 15 | 1020.0 |
| 20260502013600 | 63 | 231 | 2.0 | 3.0 | 0.00 | 0.00 | 0.00 | 15 | 1020.0 |
| 20260502013057 | 63 | 218 | 2.0 | 2.0 | 0.00 | 0.00 | 0.00 | 13 | 1020.2 |
| 20260502012555 | 62 | 185 | 1.0 | 1.0 | 0.00 | 0.00 | 0.00 | 14 | 1020.2 |
| 20260502012053 | 63 | 237 | 3.0 | 3.0 | 0.00 | 0.00 | 0.00 | 13 | 1020.2 |
| 20260502011549 | 63 | 217 | 1.0 | 1.0 | 0.00 | 0.00 | 0.00 | 13 | 1020.2 |
| 20260502011045 | 64 | 211 | 1.0 | 2.0 | 0.00 | 0.00 | 0.00 | 14 | 1020.2 |
| 20260502010543 | 64 | 155 | 1.0 | 1.0 | 0.00 | 0.00 | 0.00 | 13 | 1020.3 |
| 20260502010039 | 64 | 231 | 1.0 | 1.0 | 0.00 | 0.00 | 0.00 | 13 | 1020.2 |
| 20260502005537 | 65 | 101 | 2.0 | 2.0 | 0.00 | 0.00 | 0.00 | 13 | 1020.3 |
| 20260502005034 | 66 | 130 | 1.0 | 1.0 | 0.00 | 0.00 | 0.00 | 13 | 1020.2 |
| 20260502004530 | 66 | 153 | 0.0 | 0.0 | 0.00 | 0.00 | 0.00 | 14 | 1019.9 |
| 20260502004027 | 66 | 206 | 2.0 | 2.0 | 0.00 | 0.00 | 0.00 | 13 | 1020.2 |
| 20260502003525 | 64 | 228 | 2.0 | 2.0 | 0.00 | 0.00 | 0.00 | 12 | 1020.2 |
| 20260502003021 | 66 | 216 | 2.0 | 3.0 | 0.00 | 0.00 | 0.00 | 13 | 1019.8 |
| 20260502002518 | 66 | 148 | 1.0 | 1.0 | 0.00 | 0.00 | 0.00 | 14 | 1019.9 |
| 20260502002015 | 66 | 118 | 0.0 | 1.0 | 0.00 | 0.00 | 0.00 | 13 | 1020.2 |
| 20260502001513 | 65 | 92 | 0.0 | 1.0 | 0.00 | 0.00 | 0.00 | 13 | 1019.9 |
| 20260502001010 | 64 | 96 | 1.0 | 2.0 | 0.00 | 0.00 | 0.00 | 13 | 1020.2 |
| 20260502000508 | 66 | 226 | 2.0 | 2.0 | 0.00 | 0.00 | 0.00 | 14 | 1020.2 |
| 20260502000005 | 67 | 218 | 1.0 | 2.0 | 0.00 | 0.00 | 0.00 | 12 | 1020.0 |
| 20260501235500 | 66 | 114 | 0.0 | 1.0 | 0.00 | 0.00 | 0.00 | 13 | 1020.2 |
| 20260501234955 | 66 | 125 | 0.0 | 1.0 | 0.00 | 0.00 | 0.00 | 13 | 1020.3 |
| 20260501234452 | 64 | 287 | 2.0 | 2.0 | 0.00 | 0.00 | 0.00 | 13 | 1020.3 |
| 20260501233951 | 64 | 90 | 2.0 | 2.0 | 0.00 | 0.00 | 0.00 | 13 | 1020.4 |
| 20260501233448 | 65 | 82 | 4.0 | 6.0 | 0.00 | 0.00 | 0.00 | 13 | 1019.9 |
| 20260501232944 | 67 | 70 | 0.0 | 1.0 | 0.00 | 0.00 | 0.00 | 14 | 1020.2 |
| 20260501232441 | 68 | 97 | 0.0 | 0.0 | 0.00 | 0.00 | 0.00 | 12 | 1020.4 |
| 20260501231938 | 66 | 108 | 0.0 | 1.0 | 0.00 | 0.00 | 0.00 | 13 | 1020.2 |
| 20260501231437 | 66 | 165 | 1.0 | 2.0 | 0.00 | 0.00 | 0.00 | 15 | 1020.2 |
| 20260501230934 | 66 | 259 | 3.0 | 3.0 | 0.00 | 0.00 | 0.00 | 14 | 1020.3 |
| 20260501230433 | 67 | 80 | 2.0 | 3.0 | 0.00 | 0.00 | 0.00 | 13 | 1020.0 |
| 20260501225930 | 66 | 219 | 2.0 | 2.0 | 0.00 | 0.00 | 0.00 | 14 | 1020.3 |
| 20260501225428 | 67 | 103 | 1.0 | 1.0 | 0.00 | 0.00 | 0.00 | 13 | 1020.4 |
| 20260501224923 | 68 | 93 | 1.0 | 1.0 | 0.00 | 0.00 | 0.00 | 13 | 1020.3 |
| 20260501224421 | 66 | 103 | 0.0 | 1.0 | 0.00 | 0.00 | 0.00 | 13 | 1020.4 |
| 20260501223918 | 65 | 267 | 2.0 | 2.0 | 0.00 | 0.00 | 0.00 | 14 | 1020.4 |
| 20260501223414 | 66 | 233 | 2.0 | 3.0 | 0.00 | 0.00 | 0.00 | 15 | 1020.4 |
| 20260501222910 | 66 | 113 | 2.0 | 2.0 | 0.00 | 0.00 | 0.00 | 14 | 1020.3 |
| 20260501222407 | 64 | 105 | 1.0 | 1.0 | 0.00 | 0.00 | 0.00 | 15 | 1020.4 |
| 20260501221903 | 64 | 63 | 3.0 | 3.0 | 0.00 | 0.00 | 0.00 | 14 | 1020.5 |
| 20260501221401 | 65 | 101 | 1.0 | 2.0 | 0.00 | 0.00 | 0.00 | 14 | 1020.5 |
| 20260501220859 | 64 | 200 | 1.0 | 1.0 | 0.00 | 0.00 | 0.00 | 14 | 1020.6 |
| 20260501220356 | 65 | 239 | 3.0 | 3.0 | 0.00 | 0.00 | 0.00 | 13 | 1020.9 |
| 20260501215852 | 65 | 91 | 0.0 | 1.0 | 0.00 | 0.00 | 0.00 | 13 | 1020.8 |
| 20260501215348 | 65 | 145 | 1.0 | 1.0 | 0.00 | 0.00 | 0.00 | 14 | 1020.6 |
| 20260501214844 | 67 | 94 | 2.0 | 2.0 | 0.00 | 0.00 | 0.00 | 13 | 1021.1 |
| 20260501214340 | 67 | 98 | 0.0 | 1.0 | 0.00 | 0.00 | 0.00 | 14 | 1021.0 |
| 20260501213836 | 66 | 283 | 0.0 | 0.0 | 0.00 | 0.00 | 0.00 | 14 | 1021.2 |
| 20260501213332 | 65 | 104 | 2.0 | 2.0 | 0.00 | 0.00 | 0.00 | 13 | 1021.2 |
| 20260501212828 | 64 | 88 | 1.0 | 1.0 | 0.00 | 0.00 | 0.00 | 14 | 1021.1 |
| 20260501212325 | 65 | 102 | 0.0 | 1.0 | 0.00 | 0.00 | 0.00 | 14 | 1021.0 |
| 20260501211822 | 64 | 90 | 2.0 | 2.0 | 0.00 | 0.00 | 0.00 | 15 | 1021.4 |
| 20260501211320 | 63 | 87 | 2.0 | 3.0 | 0.00 | 0.00 | 0.00 | 14 | 1021.4 |
| 20260501210816 | 64 | 101 | 2.0 | 3.0 | 0.00 | 0.00 | 0.00 | 14 | 1021.4 |
| 20260501210314 | 64 | 90 | 1.0 | 2.0 | 0.00 | 0.00 | 0.00 | 14 | 1021.4 |
| 20260501205809 | 64 | 126 | 1.0 | 1.0 | 0.00 | 0.00 | 0.00 | 16 | 1021.4 |
| 20260501205307 | 62 | 224 | 2.0 | 2.0 | 0.00 | 0.00 | 0.00 | 17 | 1021.4 |
| 20260501204803 | 62 | 256 | 3.0 | 4.0 | 0.00 | 0.00 | 0.00 | 16 | 1021.6 |
| 20260501204300 | 61 | 209 | 2.0 | 3.0 | 0.00 | 0.00 | 0.00 | 16 | 1021.4 |
| 20260501203756 | 62 | 244 | 4.0 | 4.0 | 0.00 | 0.00 | 0.00 | 15 | 1021.6 |
| 20260501203254 | 64 | 252 | 3.0 | 4.0 | 0.00 | 0.00 | 0.00 | 14 | 1021.6 |
| 20260501202751 | 63 | 188 | 0.0 | 1.0 | 0.00 | 0.00 | 0.00 | 15 | 1021.6 |
| 20260501202247 | 62 | 84 | 1.0 | 1.0 | 0.00 | 0.00 | 0.00 | 13 | 1021.5 |
| 20260501201744 | 62 | 99 | 2.0 | 3.0 | 0.00 | 0.00 | 0.00 | 15 | 1021.6 |
| 20260501201241 | 62 | 110 | 1.0 | 1.0 | 0.00 | 0.00 | 0.00 | 16 | 1021.7 |
| 20260501200738 | 62 | 109 | 3.0 | 3.0 | 0.00 | 0.00 | 0.00 | 17 | 1021.6 |
| 20260501200235 | 62 | 99 | 1.0 | 2.0 | 0.00 | 0.00 | 0.00 | 17 | 1021.7 |
| 20260501195732 | 62 | 221 | 1.0 | 2.0 | 0.00 | 0.00 | 0.00 | 17 | 1021.7 |
| 20260501195228 | 61 | 167 | 2.0 | 2.0 | 0.00 | 0.00 | 0.00 | 18 | 1021.6 |
| 20260501194724 | 61 | 100 | 3.0 | 3.0 | 0.00 | 0.00 | 0.00 | 17 | 1021.8 |
| 20260501194220 | 61 | 193 | 2.0 | 2.0 | 0.00 | 0.00 | 0.00 | 19 | 1021.8 |
| 20260501193717 | 61 | 112 | 1.0 | 2.0 | 0.00 | 0.00 | 0.00 | 17 | 1021.7 |
| 20260501193215 | 60 | 120 | 1.0 | 1.0 | 0.00 | 0.00 | 0.00 | 19 | 1021.7 |
| 20260501192713 | 60 | 74 | 1.0 | 1.0 | 0.00 | 0.00 | 0.00 | 17 | 1022.0 |
| 20260501192210 | 59 | 62 | 2.0 | 2.0 | 0.00 | 0.00 | 0.00 | 17 | 1021.8 |
| 20260501191707 | 61 | 106 | 1.0 | 1.0 | 0.00 | 0.00 | 0.00 | 17 | 1022.0 |
| 20260501191204 | 60 | 99 | 0.0 | 1.0 | 0.00 | 0.00 | 0.00 | 17 | 1022.2 |
| 20260501190700 | 60 | 40 | 1.0 | 1.0 | 0.00 | 0.00 | 0.00 | 19 | 1022.1 |
| 20260501190156 | 59 | 90 | 2.0 | 2.0 | 0.00 | 0.00 | 0.00 | 19 | 1022.1 |
| 20260501185652 | 58 | 82 | 3.0 | 4.0 | 0.00 | 0.00 | 0.00 | 19 | 1022.0 |
| 20260501185147 | 59 | 156 | 1.0 | 1.0 | 0.00 | 0.00 | 0.00 | 20 | 1022.3 |
| 20260501184644 | 59 | 98 | 0.0 | 1.0 | 0.00 | 0.00 | 0.00 | 19 | 1022.0 |
| 20260501184139 | 59 | 75 | 1.0 | 1.0 | 0.00 | 0.00 | 0.00 | 18 | 1022.2 |
| 20260501183636 | 58 | 282 | 2.0 | 2.0 | 0.00 | 0.00 | 0.00 | 19 | 1022.3 |
| 20260501183132 | 57 | 111 | 0.0 | 0.0 | 0.00 | 0.00 | 0.00 | 19 | 1022.5 |
| 20260501182629 | 57 | 153 | 1.0 | 1.0 | 0.00 | 0.00 | 0.00 | 21 | 1022.5 |
| 20260501182125 | 58 | 207 | 2.0 | 2.0 | 0.00 | 0.00 | 0.00 | 19 | 1022.7 |
| 20260501181623 | 57 | 114 | 1.0 | 2.0 | 0.00 | 0.00 | 0.00 | 20 | 1022.8 |
| 20260501181120 | 56 | 154 | 2.0 | 2.0 | 0.00 | 0.00 | 0.00 | 22 | 1022.8 |
| 20260501180618 | 56 | 230 | 1.0 | 1.0 | 0.00 | 0.00 | 0.00 | 20 | 1022.7 |
| 20260501180114 | 54 | 177 | 2.0 | 2.0 | 0.00 | 0.00 | 0.00 | 27 | 1022.7 |
| 20260501175611 | 56 | 247 | 4.0 | 4.0 | 0.00 | 0.00 | 0.00 | 26 | 1022.8 |
| 20260501175108 | 56 | 123 | 0.0 | 1.0 | 0.00 | 0.00 | 0.00 | 25 | 1022.9 |
| 20260501174604 | 56 | 97 | 1.0 | 1.0 | 0.00 | 0.00 | 0.00 | 26 | 1022.8 |
| 20260501174102 | 55 | 102 | 0.0 | 0.0 | 0.00 | 0.00 | 0.00 | 26 | 1023.2 |
| 20260501173559 | 53 | 61 | 2.0 | 3.0 | 0.00 | 0.00 | 0.00 | 28 | 1023.1 |
| 20260501173055 | 54 | 244 | 0.0 | 0.0 | 0.00 | 0.00 | 0.00 | 29 | 1023.2 |
| 20260501172551 | 53 | 88 | 2.0 | 2.0 | 0.00 | 0.00 | 0.00 | 32 | 1023.1 |
| 20260501172047 | 53 | 95 | 1.0 | 1.0 | 0.00 | 0.00 | 0.00 | 34 | 1023.2 |
| 20260501171543 | 52 | 99 | 0.0 | 0.0 | 0.00 | 0.00 | 0.00 | 36 | 1023.5 |
| 20260501171040 | 51 | 104 | 0.0 | 1.0 | 0.00 | 0.00 | 0.00 | 35 | 1023.2 |
| 20260501170537 | 50 | 106 | 1.0 | 2.0 | 0.00 | 0.00 | 0.00 | 38 | 1023.2 |
| 20260501170034 | 51 | 126 | 0.0 | 1.0 | 0.00 | 0.00 | 0.00 | 36 | 1023.2 |
| 20260501165532 | 51 | 155 | 1.0 | 1.0 | 0.00 | 0.00 | 0.00 | 35 | 1023.4 |
| 20260501165029 | 51 | 98 | 1.0 | 2.0 | 0.00 | 0.00 | 0.00 | 37 | 1023.3 |
| 20260501164527 | 51 | 97 | 1.0 | 2.0 | 0.00 | 0.00 | 0.00 | 37 | 1023.3 |
| 20260501164023 | 48 | 98 | 1.0 | 2.0 | 0.00 | 0.00 | 0.00 | 40 | 1023.5 |
| 20260501163520 | 46 | 101 | 0.0 | 1.0 | 0.00 | 0.00 | 0.00 | 42 | 1023.5 |
| 20260501163016 | 45 | 86 | 0.0 | 0.0 | 0.00 | 0.00 | 0.00 | 42 | 1023.5 |
| 20260501162513 | 48 | 261 | 3.0 | 6.0 | 0.00 | 0.00 | 0.00 | 39 | 1023.5 |
| 20260501162010 | 46 | 107 | 0.0 | 0.0 | 0.00 | 0.00 | 0.00 | 41 | 1023.4 |
| 20260501161507 | 46 | 114 | 0.0 | 1.0 | 0.00 | 0.00 | 0.00 | 42 | 1023.7 |
| 20260501161004 | 48 | 86 | 0.0 | 0.0 | 0.00 | 0.00 | 0.00 | 40 | 1023.5 |
| 20260501160501 | 47 | 73 | 2.0 | 2.0 | 0.00 | 0.00 | 0.00 | 41 | 1023.5 |
| 20260501155957 | 46 | 97 | 2.0 | 2.0 | 0.00 | 0.00 | 0.00 | 43 | 1023.8 |
| 20260501155454 | 43 | 104 | 0.0 | 0.0 | 0.00 | 0.00 | 0.00 | 47 | 1023.9 |
| 20260501154951 | 41 | 100 | 0.0 | 1.0 | 0.00 | 0.00 | 0.00 | 49 | 1023.9 |
| 20260501154449 | 41 | 275 | 1.0 | 2.0 | 0.00 | 0.00 | 0.00 | 48 | 1024.0 |
| 20260501153945 | 42 | 98 | 0.0 | 1.0 | 0.00 | 0.00 | 0.00 | 46 | 1023.9 |
| 20260501153443 | 42 | 155 | 0.0 | 1.0 | 0.00 | 0.00 | 0.00 | 48 | 1024.0 |
| 20260501152944 | 42 | 92 | 0.0 | 0.0 | 0.00 | 0.00 | 0.00 | 48 | 1024.1 |
| 20260501152442 | 39 | 96 | 1.0 | 2.0 | 0.00 | 0.00 | 0.00 | 52 | 1024.1 |